createdAt,value
2019-05-25T00:02:28.244Z,19.47
2019-05-25T00:04:58.497Z,20.00
2019-05-25T00:07:29.164Z,18.90
2019-05-25T00:09:59.348Z,21.07
2019-05-25T00:12:29.569Z,18.30
2019-05-25T00:15:00.122Z,18.50
2019-05-25T00:17:30.346Z,19.67
2019-05-25T00:20:00.953Z,18.47
2019-05-25T00:22:31.468Z,17.57
2019-05-25T00:25:01.659Z,22.63
2019-05-25T00:27:33.023Z,21.67
2019-05-25T00:30:03.854Z,19.13
2019-05-25T00:32:35.666Z,21.70
2019-05-25T00:35:08.342Z,21.00
2019-05-25T00:37:39.065Z,23.93
2019-05-25T00:40:09.837Z,20.23
2019-05-25T00:42:40.078Z,23.43
2019-05-25T00:45:10.612Z,21.77
2019-05-25T00:47:40.873Z,21.87
2019-05-25T00:50:11.064Z,19.70
2019-05-25T00:52:41.298Z,21.83
2019-05-25T00:55:11.564Z,21.80
2019-05-25T00:57:42.493Z,19.77
2019-05-25T01:00:12.951Z,20.43
2019-05-25T01:02:43.175Z,22.40
2019-05-25T01:05:13.539Z,21.70
2019-05-25T01:07:43.773Z,21.13
2019-05-25T01:10:14.238Z,22.03
2019-05-25T01:12:44.463Z,18.50
2019-05-25T01:15:16.814Z,23.17
2019-05-25T01:17:47.021Z,20.87
2019-05-25T01:20:18.001Z,22.90
2019-05-25T01:22:48.308Z,20.40
2019-05-25T01:25:18.925Z,21.43
2019-05-25T01:27:49.158Z,20.33
2019-05-25T01:30:20.047Z,19.83
2019-05-25T01:32:50.564Z,22.97
2019-05-25T01:35:20.735Z,21.00
2019-05-25T01:37:50.962Z,21.80
2019-05-25T01:40:21.770Z,21.70
2019-05-25T01:42:52.090Z,24.10
2019-05-25T01:45:22.355Z,21.10
2019-05-25T01:47:52.639Z,20.43
2019-05-25T01:50:22.833Z,21.83
2019-05-25T01:52:53.439Z,23.43
2019-05-25T01:55:23.623Z,24.53
2019-05-25T01:57:54.233Z,25.77
2019-05-25T02:00:24.778Z,25.77
2019-05-25T02:02:55.381Z,23.53
2019-05-25T02:05:25.562Z,25.07
2019-05-25T02:07:55.790Z,22.77
2019-05-25T02:10:25.983Z,23.60
2019-05-25T02:12:56.203Z,24.13
2019-05-25T02:15:26.725Z,21.20
2019-05-25T02:17:57.243Z,23.27
2019-05-25T02:20:27.523Z,22.83
2019-05-25T02:22:58.107Z,24.23
2019-05-25T02:25:28.644Z,24.27
2019-05-25T02:27:58.862Z,22.13
2019-05-25T02:30:29.779Z,21.97
2019-05-25T02:33:00.814Z,20.70
2019-05-25T02:35:31.190Z,26.10
2019-05-25T02:38:01.415Z,22.90
2019-05-25T02:40:31.937Z,26.60
2019-05-25T02:43:02.513Z,23.00
2019-05-25T02:45:32.699Z,24.23
2019-05-25T02:48:03.213Z,23.13
2019-05-25T02:50:33.426Z,24.87
2019-05-25T02:53:03.715Z,21.17
2019-05-25T02:55:35.151Z,22.87
2019-05-25T02:58:05.778Z,24.83
2019-05-25T03:00:36.366Z,25.73
2019-05-25T03:03:06.783Z,24.30
2019-05-25T03:05:37.717Z,25.00
2019-05-25T03:08:07.916Z,23.57
2019-05-25T03:10:38.716Z,25.17
2019-05-25T03:13:08.937Z,21.87
2019-05-25T03:15:39.318Z,21.50
2019-05-25T03:18:10.184Z,27.67
2019-05-25T03:20:40.393Z,28.90
2019-05-25T03:23:10.606Z,23.33
2019-05-25T03:25:49.117Z,25.83
2019-05-25T03:28:12.777Z,25.80
2019-05-25T03:30:43.026Z,23.43
2019-05-25T03:33:13.217Z,30.87
2019-05-25T03:35:43.423Z,30.77
2019-05-25T03:38:13.642Z,26.20
2019-05-25T03:40:44.636Z,27.03
2019-05-25T03:43:14.865Z,27.70
2019-05-25T03:45:45.374Z,30.33
2019-05-25T03:48:15.649Z,25.97
2019-05-25T03:50:45.816Z,31.50
2019-05-25T03:53:16.376Z,29.87
2019-05-25T03:55:46.553Z,26.80
2019-05-25T03:58:17.493Z,27.83
2019-05-25T04:00:47.754Z,28.33
2019-05-25T04:03:18.704Z,27.53
2019-05-25T04:05:48.906Z,30.23
2019-05-25T04:08:19.847Z,28.63
2019-05-25T04:10:50.044Z,26.03
2019-05-25T04:13:20.244Z,27.47
2019-05-25T04:15:50.434Z,27.67
2019-05-25T04:18:20.574Z,28.57
2019-05-25T04:20:50.740Z,30.83
2019-05-25T04:23:20.959Z,28.53
2019-05-25T04:25:51.170Z,26.13
2019-05-25T04:28:21.378Z,25.60
2019-05-25T04:30:51.548Z,26.30
2019-05-25T04:33:22.194Z,28.50
2019-05-25T04:35:52.412Z,28.40
2019-05-25T04:38:22.668Z,28.37
2019-05-25T04:40:52.953Z,28.00
2019-05-25T04:43:23.182Z,27.00
2019-05-25T04:45:53.364Z,24.70
2019-05-25T04:48:23.534Z,27.93
2019-05-25T04:50:53.717Z,25.87
2019-05-25T04:53:24.308Z,26.80
2019-05-25T04:55:54.564Z,28.90
2019-05-25T04:58:24.828Z,27.70
2019-05-25T05:00:55.367Z,23.53
2019-05-25T05:03:25.550Z,24.53
2019-05-25T05:05:55.732Z,26.43
2019-05-25T05:08:25.819Z,24.53
2019-05-25T05:10:56.361Z,20.03
2019-05-25T05:13:26.566Z,23.10
2019-05-25T05:15:56.761Z,23.13
2019-05-25T05:18:26.954Z,21.63
2019-05-25T05:20:57.127Z,24.23
2019-05-25T05:23:27.643Z,24.57
2019-05-25T05:25:57.828Z,35.23
2019-05-25T05:28:28.035Z,27.83
2019-05-25T05:30:58.231Z,26.13
2019-05-25T05:33:28.856Z,24.87
2019-05-25T05:36:00.271Z,26.13
2019-05-25T05:38:32.388Z,26.17
2019-05-25T05:41:03.464Z,27.03
2019-05-25T05:43:34.985Z,24.90
2019-05-25T05:46:08.060Z,26.07
2019-05-25T05:48:41.093Z,23.17
2019-05-25T05:51:14.110Z,24.77
2019-05-25T05:53:46.062Z,21.93
2019-05-25T05:56:16.529Z,22.47
2019-05-25T05:58:47.703Z,26.77
2019-05-25T06:01:19.061Z,21.30
2019-05-25T06:03:49.337Z,21.00
2019-05-25T06:06:19.539Z,23.13
2019-05-25T06:08:49.739Z,19.67
2019-05-25T06:11:19.991Z,22.87
2019-05-25T06:13:50.124Z,23.77
2019-05-25T06:16:20.740Z,23.43
2019-05-25T06:18:51.005Z,20.63
2019-05-25T06:21:21.529Z,20.53
2019-05-25T06:23:52.074Z,20.93
2019-05-25T06:26:22.597Z,22.20
2019-05-25T06:28:52.807Z,20.07
2019-05-25T06:31:23.055Z,21.90
2019-05-25T06:33:53.611Z,18.57
2019-05-25T06:36:23.801Z,18.30
2019-05-25T06:38:54.506Z,20.17
2019-05-25T06:41:24.667Z,19.47
2019-05-25T06:43:55.169Z,21.47
2019-05-25T06:46:25.365Z,19.77
2019-05-25T06:48:55.655Z,16.63
2019-05-25T06:51:26.260Z,17.50
2019-05-25T06:53:56.488Z,20.27
2019-05-25T06:56:26.622Z,20.40
2019-05-25T06:58:57.052Z,17.67
2019-05-25T07:01:27.249Z,21.63
2019-05-25T07:03:57.473Z,21.13
2019-05-25T07:06:27.653Z,21.43
2019-05-25T07:08:57.838Z,19.27
2019-05-25T07:11:28.097Z,23.83
2019-05-25T07:13:58.306Z,18.83
2019-05-25T07:16:29.189Z,21.47
2019-05-25T07:18:59.461Z,24.43
2019-05-25T07:21:29.635Z,23.90
2019-05-25T07:23:59.956Z,28.37
2019-05-25T07:26:30.169Z,27.73
2019-05-25T07:29:00.392Z,26.40
2019-05-25T07:31:30.669Z,25.40
2019-05-25T07:34:00.938Z,29.10
2019-05-25T07:36:31.220Z,28.17
2019-05-25T07:39:01.460Z,27.80
2019-05-25T07:41:33.580Z,30.73
2019-05-25T07:44:04.075Z,30.80
2019-05-25T07:46:34.287Z,30.40
2019-05-25T07:49:04.548Z,30.13
2019-05-25T07:51:34.882Z,33.70
2019-05-25T07:54:05.105Z,31.67
2019-05-25T07:56:35.552Z,29.90
2019-05-25T07:59:05.848Z,28.80
2019-05-25T08:01:36.138Z,30.13
2019-05-25T08:04:06.350Z,33.20
2019-05-25T08:06:36.622Z,32.13
2019-05-25T08:09:08.434Z,34.23
2019-05-25T08:11:38.991Z,31.30
2019-05-25T08:14:09.217Z,36.10
2019-05-25T08:16:39.859Z,33.00
2019-05-25T08:19:10.387Z,34.73
2019-05-25T08:21:40.641Z,36.30
2019-05-25T08:24:10.798Z,38.93
2019-05-25T08:26:40.973Z,33.77
2019-05-25T08:29:11.253Z,35.17
2019-05-25T08:31:41.437Z,33.77
2019-05-25T08:34:11.698Z,34.53
2019-05-25T08:36:41.800Z,34.33
2019-05-25T08:39:13.345Z,34.40
2019-05-25T08:41:45.648Z,36.40
2019-05-25T08:44:15.823Z,38.27
2019-05-25T08:46:46.436Z,39.70
2019-05-25T08:49:16.677Z,30.83
2019-05-25T08:51:46.938Z,31.60
2019-05-25T08:54:17.227Z,31.80
2019-05-25T08:56:47.432Z,33.37
2019-05-25T08:59:18.353Z,29.83
2019-05-25T09:01:48.748Z,30.90
2019-05-25T09:04:20.217Z,29.33
2019-05-25T09:06:50.476Z,27.20
2019-05-25T09:09:21.014Z,26.97
2019-05-25T09:11:51.320Z,29.23
2019-05-25T09:14:21.862Z,23.53
2019-05-25T09:16:52.108Z,24.80
2019-05-25T09:19:22.690Z,22.30
2019-05-25T09:22:02.161Z,23.50
2019-05-25T09:24:25.192Z,21.17
2019-05-25T09:26:55.730Z,25.47
2019-05-25T09:29:26.049Z,18.67
2019-05-25T09:31:56.277Z,21.03
2019-05-25T09:34:26.575Z,23.10
2019-05-25T09:36:56.798Z,23.63
2019-05-25T09:39:27.764Z,22.23
2019-05-25T09:41:57.985Z,24.77
2019-05-25T09:44:28.254Z,21.27
2019-05-25T09:46:58.639Z,21.53
2019-05-25T09:49:28.929Z,18.37
2019-05-25T09:51:59.221Z,20.97
2019-05-25T09:54:29.439Z,18.03
2019-05-25T09:56:59.769Z,15.47
2019-05-25T09:59:30.229Z,18.60
2019-05-25T10:02:00.367Z,19.03
2019-05-25T10:04:30.599Z,20.13
2019-05-25T10:07:00.837Z,18.83
2019-05-25T10:09:31.101Z,17.83
2019-05-25T10:12:01.589Z,16.43
2019-05-25T10:14:32.222Z,17.73
2019-05-25T10:17:02.396Z,16.00
2019-05-25T10:19:32.968Z,18.33
2019-05-25T10:22:03.270Z,14.80
2019-05-25T10:24:33.559Z,15.43
2019-05-25T10:27:04.136Z,17.83
2019-05-25T10:29:37.450Z,16.00
2019-05-25T10:32:06.951Z,15.27
2019-05-25T10:34:37.168Z,17.50
2019-05-25T10:37:08.005Z,16.30
2019-05-25T10:39:38.205Z,14.53
2019-05-25T10:42:08.518Z,19.40
2019-05-25T10:44:38.827Z,16.80
2019-05-25T10:47:09.055Z,14.90
2019-05-25T10:49:39.339Z,15.53
2019-05-25T10:52:09.619Z,17.40
2019-05-25T10:54:39.853Z,15.23
2019-05-25T10:57:13.114Z,15.78
2019-05-25T10:59:52.464Z,17.30
2019-05-25T11:02:14.244Z,14.00
2019-05-25T11:04:44.505Z,13.63
2019-05-25T11:07:14.725Z,14.78
2019-05-25T11:09:45.020Z,15.93
2019-05-25T11:12:15.252Z,15.00
2019-05-25T11:14:45.830Z,14.20
2019-05-25T11:17:16.180Z,14.27
2019-05-25T11:19:46.406Z,12.40
2019-05-25T11:22:16.666Z,13.07
2019-05-25T11:24:46.952Z,13.63
2019-05-25T11:27:17.078Z,14.83
2019-05-25T11:29:47.904Z,11.48
2019-05-25T11:32:18.160Z,11.37
2019-05-25T11:34:48.844Z,12.77
2019-05-25T11:37:19.065Z,11.40
2019-05-25T11:39:49.286Z,11.50
2019-05-25T11:42:19.501Z,12.28
2019-05-25T11:44:49.719Z,9.13
2019-05-25T11:47:19.919Z,12.13
2019-05-25T11:49:50.166Z,11.87
2019-05-25T11:52:20.366Z,10.63
2019-05-25T11:54:50.634Z,10.48
2019-05-25T11:57:20.969Z,10.50
2019-05-25T11:59:51.170Z,8.23
2019-05-25T12:02:21.355Z,10.58
2019-05-25T12:04:51.552Z,12.35
2019-05-25T12:07:21.756Z,11.95
2019-05-25T12:09:51.976Z,13.90
2019-05-25T12:12:22.264Z,12.53
2019-05-25T12:14:52.572Z,12.93
2019-05-25T12:17:22.860Z,14.65
2019-05-25T12:19:53.127Z,12.80
2019-05-25T12:22:23.613Z,13.03
2019-05-25T12:24:54.117Z,12.45
2019-05-25T12:27:24.315Z,12.43
2019-05-25T12:29:55.014Z,18.07
2019-05-25T12:32:25.263Z,17.67
2019-05-25T12:34:55.877Z,17.05
2019-05-25T12:37:27.175Z,18.40
2019-05-25T12:39:57.427Z,20.12
2019-05-25T12:42:27.714Z,15.72
2019-05-25T12:44:57.925Z,17.60
2019-05-25T12:47:28.048Z,18.67
2019-05-25T12:49:58.270Z,18.82
2019-05-25T12:52:28.549Z,18.35
2019-05-25T12:54:58.909Z,18.17
2019-05-25T12:57:29.111Z,18.98
2019-05-25T13:00:14.324Z,18.42
2019-05-25T13:02:31.525Z,21.27
2019-05-25T13:05:01.961Z,21.23
2019-05-25T13:07:33.494Z,21.30
2019-05-25T13:10:04.157Z,22.10
2019-05-25T13:12:34.460Z,21.17
2019-05-25T13:15:07.216Z,23.20
2019-05-25T13:17:37.475Z,24.23
2019-05-25T13:20:08.790Z,22.07
2019-05-25T13:22:39.101Z,23.27
2019-05-25T13:25:10.069Z,24.83
2019-05-25T13:27:40.253Z,24.82
2019-05-25T13:30:11.591Z,23.90
2019-05-25T13:32:41.860Z,23.43
2019-05-25T13:35:12.276Z,23.23
2019-05-25T13:37:42.392Z,23.60
2019-05-25T13:40:13.005Z,29.10
2019-05-25T13:42:43.195Z,28.77
2019-05-25T13:45:14.175Z,24.57
2019-05-25T13:47:44.792Z,27.70
2019-05-25T13:50:15.722Z,24.95
2019-05-25T13:52:46.356Z,25.70
2019-05-25T13:55:17.834Z,25.93
2019-05-25T13:57:48.835Z,29.23
2019-05-25T14:00:19.352Z,29.80
2019-05-25T14:02:49.611Z,29.20
2019-05-25T14:05:20.196Z,25.77
2019-05-25T14:07:50.402Z,22.05
2019-05-25T14:10:20.601Z,25.45
2019-05-25T14:12:50.894Z,28.40
2019-05-25T14:15:21.066Z,27.05
2019-05-25T14:17:51.366Z,25.20
2019-05-25T14:20:21.916Z,26.60
2019-05-25T14:22:52.191Z,26.40
2019-05-25T14:25:22.393Z,29.25
2019-05-25T14:27:52.611Z,27.30
2019-05-25T14:30:23.185Z,25.62
2019-05-25T14:32:53.461Z,27.70
2019-05-25T14:35:23.673Z,27.15
2019-05-25T14:37:53.862Z,25.97
2019-05-25T14:40:24.133Z,24.65
2019-05-25T14:42:54.412Z,26.77
2019-05-25T14:45:24.610Z,25.88
2019-05-25T14:47:55.112Z,27.00
2019-05-25T14:50:25.679Z,28.10
2019-05-25T14:52:56.661Z,32.83
2019-05-25T14:55:27.088Z,30.85
2019-05-25T14:57:57.285Z,31.73
2019-05-25T15:00:27.553Z,32.63
2019-05-25T15:02:58.447Z,35.20
2019-05-25T15:05:29.043Z,34.58
2019-05-25T15:07:59.327Z,34.00
2019-05-25T15:10:29.645Z,33.92
2019-05-25T15:13:00.166Z,32.23
2019-05-25T15:15:31.095Z,34.35
2019-05-25T15:18:01.307Z,33.80
2019-05-25T15:20:31.915Z,35.30
2019-05-25T15:23:02.200Z,34.53
2019-05-25T15:25:32.554Z,35.60
2019-05-25T15:28:02.929Z,34.83
2019-05-25T15:30:44.624Z,38.08
2019-05-25T15:33:14.851Z,34.92
2019-05-25T15:35:45.078Z,32.73
2019-05-25T15:38:16.343Z,35.50
2019-05-25T15:40:46.652Z,29.93
2019-05-25T15:43:16.821Z,29.90
2019-05-25T15:45:47.079Z,29.50
2019-05-25T15:48:17.376Z,28.85
2019-05-25T15:50:47.557Z,27.02
2019-05-25T15:53:18.073Z,26.82
2019-05-25T15:55:48.288Z,27.42
2019-05-25T15:58:18.492Z,31.85
2019-05-25T16:00:51.104Z,32.67
2019-05-25T16:03:22.379Z,36.27
2019-05-25T16:05:52.745Z,33.08
2019-05-25T16:08:23.010Z,33.45
2019-05-25T16:10:53.239Z,37.83
2019-05-25T16:13:23.733Z,37.28
2019-05-25T16:15:53.975Z,37.20
2019-05-25T16:18:24.080Z,36.63
2019-05-25T16:20:54.295Z,34.73
2019-05-25T16:23:24.462Z,32.25
2019-05-25T16:25:54.684Z,33.78
2019-05-25T16:28:24.875Z,32.75
2019-05-25T16:30:55.087Z,34.33
2019-05-25T16:33:25.284Z,30.70
2019-05-25T16:35:58.082Z,27.90
2019-05-25T16:38:28.253Z,26.87
2019-05-25T16:40:58.460Z,29.45
2019-05-25T16:43:28.661Z,25.62
2019-05-25T16:45:59.009Z,26.35
2019-05-25T16:48:29.230Z,21.70
2019-05-25T16:50:59.545Z,22.37
2019-05-25T16:53:29.781Z,20.72
2019-05-25T16:56:00.291Z,20.68
2019-05-25T16:58:30.860Z,15.95
2019-05-25T17:01:01.549Z,15.55
2019-05-25T17:03:31.923Z,15.70
2019-05-25T17:06:02.142Z,12.50
2019-05-25T17:08:32.294Z,12.60
2019-05-25T17:11:02.921Z,9.13
2019-05-25T17:13:33.118Z,11.38
2019-05-25T17:16:03.369Z,6.65
2019-05-25T17:18:34.092Z,8.25
2019-05-25T17:21:04.708Z,7.65
2019-05-25T17:23:34.861Z,7.90
2019-05-25T17:26:05.311Z,8.48
2019-05-25T17:28:37.043Z,8.60
2019-05-25T17:31:07.558Z,7.67
2019-05-25T17:33:45.818Z,8.30
2019-05-25T17:36:12.970Z,9.45
2019-05-25T17:38:41.630Z,7.05
2019-05-25T17:41:12.140Z,7.03
2019-05-25T17:43:42.254Z,7.45
2019-05-25T17:46:12.996Z,7.92
2019-05-25T17:48:43.168Z,6.87
2019-05-25T17:51:13.439Z,9.40
2019-05-25T17:53:43.969Z,7.53
2019-05-25T17:56:14.194Z,8.88
2019-05-25T17:58:44.759Z,9.53
2019-05-25T18:01:15.392Z,7.70
2019-05-25T18:04:04.352Z,7.58
2019-05-25T18:06:17.652Z,8.18
2019-05-25T18:08:47.899Z,8.13
2019-05-25T18:11:19.113Z,9.00
2019-05-25T18:13:49.232Z,8.68
2019-05-25T18:16:19.513Z,10.18
2019-05-25T18:18:49.728Z,9.85
2019-05-25T18:21:19.985Z,11.18
2019-05-25T18:23:50.240Z,9.50
2019-05-25T18:26:20.757Z,10.80
2019-05-25T18:28:50.948Z,10.73
2019-05-25T18:31:21.197Z,11.30
2019-05-25T18:33:51.410Z,14.80
2019-05-25T18:36:21.711Z,18.10
2019-05-25T18:38:52.320Z,21.13
2019-05-25T18:41:22.637Z,21.40
2019-05-25T18:43:53.247Z,20.70
2019-05-25T18:46:23.798Z,20.97
2019-05-25T18:48:54.353Z,20.63
2019-05-25T18:51:24.489Z,22.57
2019-05-25T18:53:54.850Z,21.00
2019-05-25T18:56:25.034Z,18.83
2019-05-25T18:58:55.256Z,20.27
2019-05-25T19:01:25.449Z,17.30
2019-05-25T19:03:55.652Z,18.47
2019-05-25T19:06:25.945Z,14.37
2019-05-25T19:08:56.172Z,12.53
2019-05-25T19:11:26.387Z,13.53
2019-05-25T19:13:56.609Z,13.60
2019-05-25T19:16:26.787Z,11.50
2019-05-25T19:18:57.080Z,10.93
2019-05-25T19:21:27.317Z,13.23
2019-05-25T19:23:57.533Z,11.00
2019-05-25T19:26:27.739Z,13.43
2019-05-25T19:28:58.045Z,13.57
2019-05-25T19:31:28.736Z,11.40
2019-05-25T19:33:59.233Z,13.80
2019-05-25T19:36:29.472Z,13.70
2019-05-25T19:39:00.099Z,12.27
2019-05-25T19:41:30.308Z,13.97
2019-05-25T19:44:00.785Z,10.40
2019-05-25T19:46:31.020Z,13.77
2019-05-25T19:49:01.228Z,13.40
2019-05-25T19:51:31.432Z,14.87
2019-05-25T19:54:02.009Z,14.87
2019-05-25T19:56:32.241Z,13.27
2019-05-25T19:59:02.378Z,12.10
2019-05-25T20:01:32.603Z,10.60
2019-05-25T20:04:02.862Z,12.60
2019-05-25T20:06:33.084Z,11.43
2019-05-25T20:09:03.396Z,13.43
2019-05-25T20:11:33.576Z,11.47
2019-05-25T20:14:04.126Z,10.60
2019-05-25T20:16:35.392Z,12.50
2019-05-25T20:19:05.701Z,11.50
2019-05-25T20:21:36.341Z,12.60
2019-05-25T20:24:06.575Z,12.50
2019-05-25T20:26:37.226Z,13.93
2019-05-25T20:29:07.871Z,12.67
2019-05-25T20:31:38.108Z,12.37
2019-05-25T20:34:08.245Z,12.03
2019-05-25T20:36:38.498Z,14.33
2019-05-25T20:39:08.812Z,11.70
2019-05-25T20:41:38.987Z,12.33
2019-05-25T20:44:09.526Z,12.57
2019-05-25T20:46:39.769Z,14.50
2019-05-25T20:49:10.019Z,13.00
2019-05-25T20:51:40.248Z,14.23
2019-05-25T20:54:10.757Z,16.73
2019-05-25T20:56:41.038Z,16.67
2019-05-25T20:59:11.238Z,15.60
2019-05-25T21:01:41.618Z,18.23
2019-05-25T21:04:12.024Z,18.67
2019-05-25T21:06:42.304Z,16.50
2019-05-25T21:09:12.600Z,19.63
2019-05-25T21:11:43.116Z,18.30
2019-05-25T21:14:13.333Z,16.63
2019-05-25T21:16:43.562Z,16.90
2019-05-25T21:19:13.790Z,18.33
2019-05-25T21:21:44.280Z,18.73
2019-05-25T21:24:14.681Z,21.20
2019-05-25T21:26:44.924Z,18.30
2019-05-25T21:29:15.547Z,16.57
2019-05-25T21:31:45.810Z,20.60
2019-05-25T21:34:16.090Z,19.83
2019-05-25T21:36:47.066Z,19.97
2019-05-25T21:39:17.342Z,18.07
2019-05-25T21:41:47.542Z,19.87
2019-05-25T21:44:17.787Z,19.90
2019-05-25T21:46:48.048Z,20.17
2019-05-25T21:49:18.362Z,19.27
2019-05-25T21:51:48.654Z,18.87
2019-05-25T21:54:20.306Z,18.77
2019-05-25T21:56:50.538Z,18.83
2019-05-25T21:59:20.817Z,21.33
2019-05-25T22:01:51.480Z,19.17
2019-05-25T22:04:21.706Z,19.97
2019-05-25T22:06:52.200Z,21.40
2019-05-25T22:09:22.497Z,16.90
2019-05-25T22:11:53.095Z,20.93
2019-05-25T22:14:23.322Z,19.37
2019-05-25T22:16:53.591Z,25.07
2019-05-25T22:19:23.808Z,21.30
2019-05-25T22:21:54.092Z,19.97
2019-05-25T22:24:24.299Z,22.87
2019-05-25T22:26:54.586Z,21.63
2019-05-25T22:29:24.863Z,24.67
2019-05-25T22:31:55.093Z,22.30
2019-05-25T22:34:25.344Z,26.40
2019-05-25T22:36:55.612Z,22.70
2019-05-25T22:39:26.163Z,25.30
2019-05-25T22:41:56.351Z,21.33
2019-05-25T22:44:27.836Z,21.70
2019-05-25T22:46:58.392Z,24.47
2019-05-25T22:49:28.689Z,24.80
2019-05-25T22:51:58.953Z,22.50
2019-05-25T22:54:29.289Z,21.70
2019-05-25T22:56:59.483Z,26.83
2019-05-25T22:59:29.839Z,22.57
2019-05-25T23:02:00.120Z,24.27
2019-05-25T23:04:30.336Z,24.47
2019-05-25T23:07:00.696Z,22.27
2019-05-25T23:09:30.885Z,25.23
2019-05-25T23:12:01.091Z,23.70
2019-05-25T23:14:31.740Z,25.70
2019-05-25T23:17:02.329Z,26.70
2019-05-25T23:19:32.903Z,24.40
2019-05-25T23:22:03.198Z,25.57
2019-05-25T23:24:33.827Z,23.87
2019-05-25T23:27:05.091Z,24.23
2019-05-25T23:29:35.385Z,26.90
2019-05-25T23:32:05.815Z,25.80
2019-05-25T23:34:36.017Z,28.10
2019-05-25T23:37:14.714Z,23.60
2019-05-25T23:39:38.313Z,24.77
2019-05-25T23:42:08.561Z,25.30
2019-05-25T23:44:38.823Z,24.60
2019-05-25T23:47:09.478Z,24.63
2019-05-25T23:49:40.127Z,24.43
2019-05-25T23:52:13.309Z,27.57
2019-05-25T23:54:43.530Z,27.30
2019-05-25T23:57:14.094Z,25.27
2019-05-25T23:59:44.266Z,28.17
